Time;durP1;ratioP1;P1;durP2;ratioP2;P2;SDS_P1;SDS_P2;PMS_P1;PMS_P2;Temp;Humidity;BMP_temperature;BMP_pressure;BME280_temperature;BME280_humidity;BME280_pressure;Samples;Min_cycle;Max_cycle;Signal;HPM_P1;HPM_P2
2023/07/21 00:00:13;;;;;;;5.50;3.80;;;;;;;17.66;82.83;98800.19;106941;1260;74368;-40
2023/07/21 00:02:45;;;;;;;4.60;3.30;;;;;;;17.63;82.90;98803.84;106966;1261;66314;-40
2023/07/21 00:05:15;;;;;;;3.80;3.40;;;;;;;17.62;82.74;98803.39;106924;1260;72690;-38
2023/07/21 00:07:44;;;;;;;5.10;3.30;;;;;;;17.64;82.79;98808.46;106947;1260;60381;-39
2023/07/21 00:10:12;;;;;;;5.60;3.70;;;;;;;17.64;82.77;98808.30;107032;1265;60410;-39
2023/07/21 00:12:42;;;;;;;4.60;3.60;;;;;;;17.60;82.92;98811.50;106933;1261;73838;-39
2023/07/21 00:15:10;;;;;;;5.70;3.30;;;;;;;17.59;83.08;98803.75;106986;1261;66343;-39
2023/07/21 00:17:38;;;;;;;6.40;3.10;;;;;;;17.59;83.01;98801.56;106941;1263;71581;-39
2023/07/21 00:20:19;;;;;;;5.80;3.20;;;;;;;17.61;82.66;98802.47;106941;1262;60789;-39
2023/07/21 00:22:46;;;;;;;4.30;2.80;;;;;;;17.61;82.22;98800.74;106890;1262;59461;-40
2023/07/21 00:25:14;;;;;;;4.00;2.70;;;;;;;17.58;81.44;98806.17;106964;1261;72675;-39
2023/07/21 00:27:43;;;;;;;5.40;2.70;;;;;;;17.54;80.90;98808.05;106926;1261;67909;-38
2023/07/21 00:30:11;;;;;;;4.70;2.70;;;;;;;17.50;80.43;98809.45;106845;1267;72742;-39
2023/07/21 00:32:39;;;;;;;3.90;2.40;;;;;;;17.47;80.32;98804.73;107005;1261;61057;-39
2023/07/21 00:35:08;;;;;;;5.60;2.90;;;;;;;17.45;80.28;98806.10;106956;1263;60266;-40
2023/07/21 00:37:37;;;;;;;4.50;2.60;;;;;;;17.42;80.09;98803.96;106947;1261;72743;-39
2023/07/21 00:40:09;;;;;;;3.80;2.70;;;;;;;17.37;79.88;98805.21;106963;1260;66762;-39
2023/07/21 00:42:38;;;;;;;4.40;2.60;;;;;;;17.32;79.72;98799.75;106938;1260;72690;-39
2023/07/21 00:45:06;;;;;;;5.30;2.70;;;;;;;17.28;79.73;98800.98;106925;1260;60472;-39
2023/07/21 00:47:34;;;;;;;3.00;2.60;;;;;;;17.27;79.81;98807.28;106974;1260;59589;-39
2023/07/21 00:50:02;;;;;;;4.70;2.70;;;;;;;17.25;79.94;98811.29;106854;1261;73872;-38
2023/07/21 00:52:29;;;;;;;3.50;2.50;;;;;;;17.22;79.89;98809.87;106958;1260;67216;-40
2023/07/21 00:54:57;;;;;;;6.20;2.40;;;;;;;17.19;79.86;98814.28;106833;1262;72774;-39
2023/07/21 00:57:24;;;;;;;4.10;2.70;;;;;;;17.18;80.07;98816.35;106950;1260;61719;-39
2023/07/21 00:59:52;;;;;;;5.70;2.80;;;;;;;17.17;80.06;98816.69;106925;1262;59172;-39
2023/07/21 01:02:21;;;;;;;5.60;2.70;;;;;;;17.15;80.37;98816.71;106945;1260;73904;-39
2023/07/21 01:04:48;;;;;;;4.20;2.90;;;;;;;17.13;80.29;98816.66;106915;1260;67637;-39
2023/07/21 01:07:16;;;;;;;3.10;2.80;;;;;;;17.10;80.26;98815.46;106843;1260;72683;-39
2023/07/21 01:09:45;;;;;;;3.60;2.60;;;;;;;17.14;80.41;98818.91;106841;1261;60505;-39
2023/07/21 01:12:13;;;;;;;3.80;2.80;;;;;;;17.18;80.40;98825.90;106908;1267;61189;-40
2023/07/21 01:14:41;;;;;;;6.00;3.00;;;;;;;17.18;80.38;98826.45;106862;1260;73091;-39
2023/07/21 01:17:09;;;;;;;7.40;3.10;;;;;;;17.16;80.27;98827.34;106906;1265;66660;-39
2023/07/21 01:19:37;;;;;;;6.20;2.90;;;;;;;17.17;80.03;98831.00;106736;1260;72700;-39
2023/07/21 01:22:15;;;;;;;5.10;2.50;;;;;;;17.21;79.87;98829.67;106855;1260;61671;-39
2023/07/21 01:24:44;;;;;;;3.40;2.80;;;;;;;17.23;79.46;98829.80;106874;1260;60395;-40
2023/07/21 01:27:12;;;;;;;4.70;2.90;;;;;;;17.21;79.37;98827.50;106860;1261;73889;-39
2023/07/21 01:29:41;;;;;;;3.50;2.60;;;;;;;17.19;79.21;98829.25;106853;1260;66642;-40
2023/07/21 01:32:10;;;;;;;4.90;2.40;;;;;;;17.17;78.88;98835.61;106980;1260;71423;-39
2023/07/21 01:34:38;;;;;;;4.10;2.50;;;;;;;17.13;78.86;98836.07;106932;1259;60859;-40
2023/07/21 01:37:07;;;;;;;5.20;2.90;;;;;;;17.10;78.98;98837.38;106889;1260;60334;-40
2023/07/21 01:39:35;;;;;;;5.00;2.90;;;;;;;17.09;78.92;98842.32;107021;1259;73812;-39
2023/07/21 01:42:04;;;;;;;5.40;2.70;;;;;;;17.05;78.82;98841.35;107081;1260;66762;-39
2023/07/21 01:44:32;;;;;;;3.70;3.00;;;;;;;17.05;78.70;98850.13;107067;1260;71923;-40
2023/07/21 01:46:59;;;;;;;6.60;2.80;;;;;;;17.04;78.78;98853.27;106916;1260;62303;-40
2023/07/21 01:49:27;;;;;;;5.90;2.60;;;;;;;17.05;78.85;98855.29;106960;1259;60597;-39
2023/07/21 01:51:58;;;;;;;5.50;2.90;;;;;;;17.01;78.90;98861.85;106950;1260;73876;-39
2023/07/21 01:54:52;;;;;;;6.60;3.00;;;;;;;16.93;78.89;98860.64;107060;1260;67569;-39
2023/07/21 01:57:43;;;;;;;5.30;2.80;;;;;;;16.90;79.05;98862.23;107040;1264;71365;-39
2023/07/21 02:00:12;;;;;;;4.60;2.90;;;;;;;16.89;79.15;98864.51;106943;1262;60408;-40
2023/07/21 02:02:44;;;;;;;5.00;3.10;;;;;;;16.87;79.32;98866.44;106950;1259;60494;-40
2023/07/21 02:05:22;;;;;;;4.40;3.00;;;;;;;16.86;79.53;98872.61;106890;1266;73863;-40
2023/07/21 02:07:50;;;;;;;6.10;3.10;;;;;;;16.83;79.51;98877.36;107069;1259;67565;-39
2023/07/21 02:10:18;;;;;;;4.70;2.80;;;;;;;16.82;79.71;98879.81;106961;1260;72649;-39
2023/07/21 02:12:51;;;;;;;6.00;2.90;;;;;;;16.87;79.83;98884.11;107026;1260;60389;-40
2023/07/21 02:15:19;;;;;;;6.20;3.20;;;;;;;16.91;80.08;98884.59;107068;1260;60278;-39
2023/07/21 02:17:48;;;;;;;5.70;3.30;;;;;;;16.94;80.03;98879.23;106956;1260;73818;-39
2023/07/21 02:20:16;;;;;;;4.30;3.10;;;;;;;16.94;79.98;98881.58;107090;1259;67882;-39
2023/07/21 02:22:43;;;;;;;8.40;3.40;;;;;;;16.96;79.81;98882.25;106975;1259;72296;-39
2023/07/21 02:25:13;;;;;;;6.30;3.20;;;;;;;16.94;79.53;98886.42;107056;1259;60444;-40
2023/07/21 02:27:42;;;;;;;5.20;3.30;;;;;;;16.93;79.78;98890.20;106981;1263;59305;-39
2023/07/21 02:30:10;;;;;;;4.80;3.20;;;;;;;16.91;79.94;98889.52;106957;1260;74133;-39
2023/07/21 02:32:38;;;;;;;6.20;3.10;;;;;;;16.85;79.82;98889.54;107022;1260;67600;-40
2023/07/21 02:35:06;;;;;;;6.20;3.20;;;;;;;16.81;79.98;98887.55;107027;1261;73089;-39
2023/07/21 02:37:35;;;;;;;9.30;3.40;;;;;;;16.85;79.98;98893.36;106968;1259;60980;-39
2023/07/21 02:40:06;;;;;;;4.40;3.70;;;;;;;16.87;79.90;98894.84;107058;1259;60539;-39
2023/07/21 02:42:35;;;;;;;5.70;4.00;;;;;;;16.87;79.97;98894.35;107043;1260;73848;-39
2023/07/21 02:45:07;;;;;;;3.80;3.20;;;;;;;16.89;80.03;98895.04;107074;1264;66674;-40
2023/07/21 02:47:34;;;;;;;4.20;3.20;;;;;;;16.92;79.60;98896.86;107020;1260;70630;-40
2023/07/21 02:50:02;;;;;;;7.90;3.90;;;;;;;16.96;79.52;98898.77;107024;1260;60451;-40
2023/07/21 02:52:30;;;;;;;5.60;3.70;;;;;;;16.98;79.40;98898.50;106960;1260;59985;-39
2023/07/21 02:54:58;;;;;;;4.80;4.00;;;;;;;16.98;79.19;98902.82;107025;1264;72595;-40
2023/07/21 02:57:25;;;;;;;6.10;3.60;;;;;;;17.01;79.43;98908.73;107031;1260;67593;-40
2023/07/21 03:02:41;;;;;;;5.50;4.40;;;;;;;17.11;78.50;98905.13;104221;1292;602606;-38
2023/07/21 03:05:08;;;;;;;6.80;4.50;;;;;;;17.08;78.22;98912.29;106713;1267;60467;-38
2023/07/21 03:07:37;;;;;;;4.40;3.90;;;;;;;17.06;78.46;98915.60;106751;1266;60330;-39
2023/07/21 03:10:07;;;;;;;5.80;3.90;;;;;;;17.10;78.41;98923.77;106769;1266;72776;-40
2023/07/21 03:12:34;;;;;;;4.90;4.30;;;;;;;17.12;78.34;98921.46;106699;1267;68131;-39
2023/07/21 03:15:15;;;;;;;8.30;4.60;;;;;;;17.16;78.61;98927.52;106658;1263;166540;-39
2023/07/21 03:18:03;;;;;;;9.40;4.90;;;;;;;17.18;78.61;98930.92;106883;1262;60391;-39
2023/07/21 03:20:34;;;;;;;8.80;4.40;;;;;;;17.16;78.72;98926.41;106769;1264;60355;-39
2023/07/21 03:23:07;;;;;;;5.70;4.10;;;;;;;17.18;78.51;98927.55;106881;1263;71353;-39
2023/07/21 03:25:35;;;;;;;8.50;4.30;;;;;;;17.23;78.47;98925.52;106816;1263;67933;-39
2023/07/21 03:28:02;;;;;;;5.80;4.20;;;;;;;17.26;78.58;98927.60;106692;1263;73009;-39
2023/07/21 03:30:31;;;;;;;8.00;5.10;;;;;;;17.30;78.68;98930.29;106902;1263;59727;-40
2023/07/21 03:33:09;;;;;;;7.10;4.40;;;;;;;17.32;78.44;98942.47;106778;1262;60324;-39
2023/07/21 03:35:36;;;;;;;6.80;4.60;;;;;;;17.29;77.97;98948.20;106842;1262;72542;-39
2023/07/21 03:38:03;;;;;;;7.30;4.30;;;;;;;17.29;77.91;98950.09;106877;1263;67938;-39
2023/07/21 03:40:30;;;;;;;7.30;4.40;;;;;;;17.27;77.63;98951.31;106912;1263;73241;-40
2023/07/21 03:42:57;;;;;;;6.30;4.70;;;;;;;17.18;77.48;98957.70;106865;1264;60370;-39
2023/07/21 03:45:23;;;;;;;6.00;4.80;;;;;;;17.04;77.85;98956.63;106813;1263;59506;-39
2023/07/21 03:47:50;;;;;;;6.40;4.60;;;;;;;17.00;78.11;98958.09;106875;1263;73449;-39
2023/07/21 03:50:17;;;;;;;8.70;4.80;;;;;;;17.01;78.41;98963.80;106908;1263;68225;-39
2023/07/21 03:52:45;;;;;;;7.20;4.50;;;;;;;17.02;78.54;98968.65;106784;1263;73247;-39
2023/07/21 03:55:14;;;;;;;8.10;4.80;;;;;;;17.03;78.69;98971.69;107684;1252;60449;-39
2023/07/21 03:57:41;;;;;;;7.10;4.90;;;;;;;17.01;78.91;98977.57;107652;1252;60368;-39
2023/07/21 04:00:09;;;;;;;6.30;4.50;;;;;;;17.01;78.83;98982.27;107626;1254;73418;-40
2023/07/21 04:02:42;;;;;;;6.20;4.80;;;;;;;17.02;78.98;98984.36;107630;1254;68179;-39
2023/07/21 04:05:10;;;;;;;7.40;4.90;;;;;;;17.05;78.92;98991.38;107720;1253;71221;-39
2023/07/21 04:07:38;;;;;;;8.00;5.30;;;;;;;17.03;78.48;98992.89;107608;1254;60550;-39
2023/07/21 04:10:06;;;;;;;5.90;4.80;;;;;;;17.00;78.87;98991.36;107697;1253;60139;-40
2023/07/21 04:12:33;;;;;;;6.30;4.90;;;;;;;17.05;79.13;98990.04;107636;1254;72995;-39
2023/07/21 04:15:00;;;;;;;8.20;4.60;;;;;;;17.15;78.56;98989.83;107574;1254;68186;-39
2023/07/21 04:17:27;;;;;;;8.30;5.00;;;;;;;17.18;78.04;98991.73;107547;1254;72218;-39
2023/07/21 04:19:56;;;;;;;7.00;5.10;;;;;;;17.19;77.92;98999.70;107694;1254;60064;-39
2023/07/21 04:22:23;;;;;;;7.70;4.60;;;;;;;17.16;77.81;99006.48;107660;1253;59765;-39
2023/07/21 04:24:50;;;;;;;9.60;4.40;;;;;;;17.16;77.91;99010.33;107642;1253;73651;-39
2023/07/21 04:27:17;;;;;;;5.30;4.50;;;;;;;17.19;77.95;99005.97;107682;1255;67990;-39
2023/07/21 04:29:44;;;;;;;7.20;4.80;;;;;;;17.20;78.01;99010.64;107619;1254;73034;-39
2023/07/21 04:32:13;;;;;;;6.30;5.00;;;;;;;17.18;78.11;99012.25;107608;1254;60400;-39
2023/07/21 04:34:42;;;;;;;8.50;4.80;;;;;;;17.15;77.85;99016.58;107592;1254;60318;-39
2023/07/21 04:37:09;;;;;;;4.90;4.10;;;;;;;17.14;77.88;99017.61;107552;1254;73678;-39
2023/07/21 04:39:39;;;;;;;6.90;5.00;;;;;;;17.17;78.10;99025.01;107571;1254;68501;-39
2023/07/21 04:42:08;;;;;;;7.80;5.20;;;;;;;17.19;77.87;99028.43;107649;1254;73265;-40
2023/07/21 04:44:35;;;;;;;6.70;4.80;;;;;;;17.18;77.95;99026.42;107418;1256;59611;-40
2023/07/21 04:47:05;;;;;;;7.80;5.00;;;;;;;17.11;78.12;99029.64;107400;1253;59648;-39
2023/07/21 04:49:40;;;;;;;8.60;5.20;;;;;;;17.11;78.72;99030.27;107546;1254;73511;-40
2023/07/21 04:52:08;;;;;;;6.90;5.30;;;;;;;17.12;78.78;99038.15;107566;1254;68652;-40
2023/07/21 04:54:36;;;;;;;7.50;5.80;;;;;;;17.15;78.57;99037.10;107364;1254;72960;-39
2023/07/21 04:57:03;;;;;;;7.60;5.40;;;;;;;17.13;78.32;99041.82;107614;1254;60373;-40
2023/07/21 04:59:30;;;;;;;5.60;4.80;;;;;;;17.08;77.91;99044.86;107374;1254;60296;-40
2023/07/21 05:01:58;;;;;;;8.80;5.20;;;;;;;17.07;78.16;99043.55;107596;1254;72554;-40
2023/07/21 05:04:25;;;;;;;7.90;5.00;;;;;;;17.10;78.22;99039.13;107416;1254;68205;-39
2023/07/21 05:06:54;;;;;;;7.40;5.20;;;;;;;17.15;78.36;99037.96;107379;1254;73137;-39
2023/07/21 05:09:21;;;;;;;10.00;5.80;;;;;;;17.19;78.40;99038.53;107381;1254;60333;-39
2023/07/21 05:11:48;;;;;;;6.80;5.10;;;;;;;17.20;78.39;99038.98;107418;1254;59584;-39
2023/07/21 05:14:34;;;;;;;6.40;5.10;;;;;;;17.24;78.30;99041.52;107382;1253;73487;-39
2023/07/21 05:17:08;;;;;;;7.30;5.10;;;;;;;17.29;78.09;99042.63;107610;1259;67898;-40
2023/07/21 05:19:48;;;;;;;7.90;4.80;;;;;;;17.36;78.24;99042.61;107646;1254;73280;-40
2023/07/21 05:22:44;;;;;;;6.30;4.70;;;;;;;17.40;78.16;99043.34;107592;1254;60467;-39
2023/07/21 05:25:19;;;;;;;6.90;4.70;;;;;;;17.41;78.00;99043.24;107393;1254;60371;-40
2023/07/21 05:27:49;;;;;;;5.80;4.30;;;;;;;17.49;77.90;99046.27;107392;1254;73617;-40
2023/07/21 05:30:17;;;;;;;5.60;4.40;;;;;;;17.59;77.49;99043.40;107444;1254;67726;-40
2023/07/21 05:32:50;;;;;;;7.20;4.50;;;;;;;17.66;77.36;99046.04;107642;1254;72650;-40
2023/07/21 05:35:22;;;;;;;5.40;4.80;;;;;;;17.71;76.92;99048.88;107620;1254;60096;-40
2023/07/21 05:37:52;;;;;;;7.10;5.30;;;;;;;17.72;77.13;99048.62;107583;1254;60370;-39
2023/07/21 05:40:19;;;;;;;6.70;4.70;;;;;;;17.79;76.40;99050.70;107566;1254;73611;-40
2023/07/21 05:42:47;;;;;;;6.40;4.60;;;;;;;17.83;75.46;99050.41;107583;1254;67862;-40
2023/07/21 05:45:15;;;;;;;8.30;5.40;;;;;;;17.83;75.02;99052.21;107564;1254;71419;-40
2023/07/21 05:47:44;;;;;;;9.50;6.10;;;;;;;17.82;74.94;99055.35;107622;1254;59500;-40
2023/07/21 05:50:11;;;;;;;6.50;4.60;;;;;;;17.79;75.18;99056.66;107537;1254;60002;-39
2023/07/21 05:52:43;;;;;;;5.40;3.80;;;;;;;17.83;75.53;99052.21;107579;1254;73446;-40
2023/07/21 05:55:19;;;;;;;5.60;4.10;;;;;;;17.94;75.47;99048.27;107580;1253;67741;-39
2023/07/21 05:57:46;;;;;;;5.70;4.70;;;;;;;18.08;75.85;99051.27;107580;1254;73342;-40
2023/07/21 06:00:15;;;;;;;6.00;4.70;;;;;;;18.17;74.91;99045.55;107360;1257;60061;-40
2023/07/21 06:02:45;;;;;;;5.30;4.40;;;;;;;18.21;74.28;99046.43;107424;1254;60331;-40
2023/07/21 06:05:13;;;;;;;5.50;4.00;;;;;;;18.21;73.40;99047.61;107636;1254;72901;-40
2023/07/21 06:07:49;;;;;;;5.80;4.10;;;;;;;18.21;73.18;99044.16;107559;1254;68313;-40
2023/07/21 06:10:27;;;;;;;5.50;4.50;;;;;;;18.20;73.37;99047.77;107580;1254;73153;-40
2023/07/21 06:13:15;;;;;;;8.10;4.80;;;;;;;18.16;73.08;99052.15;107227;1254;60365;-40
2023/07/21 06:16:15;;;;;;;6.30;4.30;;;;;;;18.16;73.48;99056.47;107552;1254;60324;-40
2023/07/21 06:18:45;;;;;;;4.70;4.10;;;;;;;18.21;73.06;99057.64;107615;1257;72971;-40
2023/07/21 06:21:12;;;;;;;7.50;4.80;;;;;;;18.29;72.82;99061.97;107453;1254;68648;-40
2023/07/21 06:23:42;;;;;;;6.10;4.30;;;;;;;18.37;73.43;99060.05;107612;1254;73150;-40
2023/07/21 06:26:10;;;;;;;8.50;3.90;;;;;;;18.50;73.31;99060.52;107578;1254;60238;-41
2023/07/21 06:28:37;;;;;;;8.00;3.40;;;;;;;18.61;72.87;99065.66;107608;1252;59542;-40
2023/07/21 06:31:04;;;;;;;5.90;3.70;;;;;;;18.75;71.68;99069.80;107364;1254;73624;-40
2023/07/21 06:33:47;;;;;;;4.50;3.50;;;;;;;18.87;70.89;99074.13;107589;1254;68007;-40
2023/07/21 06:36:34;;;;;;;4.00;3.30;;;;;;;18.90;70.12;99076.02;107586;1254;73271;-40
2023/07/21 06:39:28;;;;;;;6.70;3.60;;;;;;;18.91;69.44;99075.39;107192;1259;60459;-40
2023/07/21 06:42:11;;;;;;;6.00;3.70;;;;;;;18.95;69.81;99072.15;107613;1254;59475;-40
2023/07/21 06:44:56;;;;;;;6.00;3.80;;;;;;;19.07;70.55;99068.33;107617;1254;73625;-40
2023/07/21 06:47:37;;;;;;;4.00;3.00;;;;;;;19.25;70.52;99071.88;107572;1257;67844;-40
2023/07/21 06:50:24;;;;;;;4.60;2.80;;;;;;;19.46;69.85;99078.98;107548;1254;72108;-40
2023/07/21 06:52:52;;;;;;;4.20;3.00;;;;;;;19.58;68.11;99081.17;107636;1257;60436;-40
2023/07/21 06:55:21;;;;;;;4.40;2.90;;;;;;;19.63;67.08;99082.02;107656;1255;60312;-40
2023/07/21 06:57:49;;;;;;;4.40;3.00;;;;;;;19.62;66.74;99086.04;107404;1259;73587;-40
2023/07/21 07:00:16;;;;;;;4.70;2.50;;;;;;;19.63;66.91;99084.61;107623;1254;68008;-40
2023/07/21 07:02:48;;;;;;;7.60;2.80;;;;;;;19.73;67.53;99082.02;107577;1254;72770;-40
2023/07/21 07:05:16;;;;;;;5.20;3.00;;;;;;;19.92;67.39;99083.71;107661;1254;60415;-40
2023/07/21 07:07:43;;;;;;;6.00;3.20;;;;;;;20.08;67.47;99086.30;107621;1254;60189;-40
2023/07/21 07:10:10;;;;;;;3.70;2.60;;;;;;;20.22;66.64;99086.52;107644;1254;72340;-40
2023/07/21 07:12:38;;;;;;;4.10;2.60;;;;;;;20.32;64.36;99085.49;107653;1254;66663;-40
2023/07/21 07:15:06;;;;;;;5.70;2.50;;;;;;;20.35;63.21;99087.23;107599;1253;71583;-40
2023/07/21 07:17:34;;;;;;;6.50;2.90;;;;;;;20.37;61.95;99086.16;107649;1254;60542;-40
2023/07/21 07:20:01;;;;;;;3.00;2.20;;;;;;;20.40;63.07;99089.95;107674;1254;60398;-41
2023/07/21 07:22:28;;;;;;;4.40;2.10;;;;;;;20.43;61.74;99087.98;107649;1254;74521;-40
2023/07/21 07:24:56;;;;;;;3.80;2.50;;;;;;;20.50;62.32;99088.36;107601;1254;67421;-40
2023/07/21 07:27:23;;;;;;;4.20;2.20;;;;;;;20.59;61.80;99084.20;107503;1254;73239;-40
2023/07/21 07:29:50;;;;;;;3.20;2.10;;;;;;;20.60;60.40;99094.55;107603;1254;60524;-40
2023/07/21 07:32:17;;;;;;;3.30;2.20;;;;;;;20.59;59.61;99099.80;107631;1254;60376;-40
2023/07/21 07:34:43;;;;;;;2.40;2.00;;;;;;;20.60;59.92;99096.50;107629;1254;74505;-41
2023/07/21 07:37:10;;;;;;;4.20;2.20;;;;;;;20.68;60.17;99098.74;107611;1254;67783;-40
2023/07/21 07:39:37;;;;;;;2.30;1.80;;;;;;;20.77;60.28;99103.31;107633;1254;72155;-40
2023/07/21 07:42:04;;;;;;;2.90;1.90;;;;;;;20.80;58.45;99111.12;107547;1254;60404;-41
2023/07/21 07:44:34;;;;;;;5.30;2.00;;;;;;;20.75;57.28;99109.81;107645;1254;60370;-40
2023/07/21 07:47:01;;;;;;;3.20;1.90;;;;;;;20.68;57.42;99114.58;107580;1254;73722;-40
2023/07/21 07:49:29;;;;;;;2.90;2.00;;;;;;;20.65;58.75;99110.79;107598;1254;67270;-40
2023/07/21 07:51:55;;;;;;;2.30;1.80;;;;;;;20.74;59.22;99106.39;107591;1257;72492;-40
2023/07/21 07:54:22;;;;;;;3.70;1.90;;;;;;;20.88;58.88;99101.85;107595;1256;60543;-40
2023/07/21 07:56:51;;;;;;;5.70;2.20;;;;;;;21.00;58.63;99104.48;107605;1254;60492;-40
2023/07/21 07:59:18;;;;;;;2.70;1.90;;;;;;;21.06;57.71;99107.95;107652;1257;74395;-40
2023/07/21 08:01:45;;;;;;;2.70;1.80;;;;;;;21.09;57.51;99102.45;107548;1254;68008;-41
2023/07/21 08:04:11;;;;;;;5.30;2.10;;;;;;;21.12;57.67;99101.74;107655;1254;73227;-40
2023/07/21 08:06:40;;;;;;;3.60;1.70;;;;;;;21.20;57.65;99102.40;107569;1257;60526;-40
2023/07/21 08:09:09;;;;;;;2.30;1.90;;;;;;;21.29;56.30;99102.06;107607;1257;60302;-40
2023/07/21 08:11:37;;;;;;;2.30;1.60;;;;;;;21.37;56.48;99102.16;107649;1254;74251;-40
2023/07/21 08:14:05;;;;;;;1.70;1.60;;;;;;;21.43;54.53;99099.05;107466;1254;67776;-39
2023/07/21 08:16:31;;;;;;;3.40;1.60;;;;;;;21.47;55.01;99105.17;107602;1254;73089;-40
2023/07/21 08:18:58;;;;;;;2.20;1.70;;;;;;;21.54;54.98;99107.02;107568;1253;60526;-39
2023/07/21 08:21:27;;;;;;;3.40;1.80;;;;;;;21.62;53.94;99104.57;107513;1254;61041;-39
2023/07/21 08:23:54;;;;;;;2.20;1.80;;;;;;;21.69;53.85;99105.61;107564;1253;74282;-38
2023/07/21 08:26:21;;;;;;;2.50;1.90;;;;;;;21.80;54.94;99107.11;107636;1257;67954;-39
2023/07/21 08:28:52;;;;;;;3.50;1.80;;;;;;;21.95;54.89;99108.91;107629;1257;73229;-39
2023/07/21 08:31:19;;;;;;;3.70;2.00;;;;;;;22.09;54.79;99113.92;107604;1254;60367;-40
2023/07/21 08:33:46;;;;;;;2.80;1.80;;;;;;;22.18;54.47;99120.93;107626;1254;60406;-40
2023/07/21 08:36:13;;;;;;;2.40;1.90;;;;;;;22.19;53.79;99124.67;107630;1254;74254;-39
2023/07/21 08:38:41;;;;;;;2.20;1.90;;;;;;;22.19;53.87;99127.52;107588;1256;67845;-39
2023/07/21 08:41:09;;;;;;;2.20;1.70;;;;;;;22.24;53.19;99126.56;107618;1254;73253;-40
2023/07/21 08:43:36;;;;;;;2.80;1.70;;;;;;;22.27;53.75;99124.26;107640;1254;60331;-39
2023/07/21 08:46:05;;;;;;;5.40;1.50;;;;;;;22.31;52.78;99127.89;107636;1254;60380;-40
2023/07/21 08:48:32;;;;;;;4.70;1.70;;;;;;;22.37;52.11;99121.39;107664;1257;73890;-40
2023/07/21 08:50:59;;;;;;;2.80;1.80;;;;;;;22.40;52.24;99117.73;107644;1254;68520;-39
2023/07/21 08:53:27;;;;;;;4.20;1.80;;;;;;;22.44;53.04;99115.63;107569;1257;73103;-39
2023/07/21 08:55:55;;;;;;;4.50;1.70;;;;;;;22.54;53.37;99111.13;107502;1254;60599;-39
2023/07/21 08:58:22;;;;;;;2.10;1.50;;;;;;;22.68;53.16;99118.95;107568;1254;60882;-39
2023/07/21 09:00:52;;;;;;;3.10;1.80;;;;;;;22.80;50.75;99116.48;107655;1254;73834;-40
2023/07/21 09:03:22;;;;;;;2.50;1.60;;;;;;;22.87;51.05;99112.95;107641;1257;68505;-40
2023/07/21 09:05:50;;;;;;;4.30;1.70;;;;;;;22.97;51.42;99107.61;107652;1255;71780;-41
2023/07/21 09:08:19;;;;;;;4.10;1.60;;;;;;;23.06;50.87;99109.66;107666;1259;60569;-41
2023/07/21 09:10:48;;;;;;;2.00;1.60;;;;;;;23.08;49.32;99111.73;107606;1255;60389;-41
2023/07/21 09:13:16;;;;;;;3.40;1.50;;;;;;;23.03;48.86;99118.89;107619;1256;74208;-40
2023/07/21 09:15:54;;;;;;;2.10;1.30;;;;;;;23.00;49.72;99110.76;107677;1256;66666;-40
2023/07/21 09:18:45;;;;;;;5.30;1.80;;;;;;;23.08;49.36;99114.64;107654;1256;72678;-41
2023/07/21 09:21:23;;;;;;;3.40;1.60;;;;;;;23.18;49.59;99114.52;107602;1254;60316;-41
2023/07/21 09:23:50;;;;;;;1.50;1.30;;;;;;;23.31;49.38;99114.14;107572;1256;60540;-40
2023/07/21 09:26:21;;;;;;;1.60;1.20;;;;;;;23.47;49.51;99119.73;107605;1256;74321;-41
2023/07/21 09:28:49;;;;;;;1.80;1.50;;;;;;;23.60;47.95;99120.33;107662;1257;66710;-41
2023/07/21 09:31:16;;;;;;;2.80;1.40;;;;;;;23.66;48.38;99115.90;107609;1253;71461;-40
2023/07/21 09:33:46;;;;;;;2.50;1.30;;;;;;;23.75;47.56;99118.79;107603;1254;60429;-41
2023/07/21 09:36:15;;;;;;;2.80;1.50;;;;;;;23.84;46.97;99122.36;107651;1258;59182;-40
2023/07/21 09:38:43;;;;;;;1.80;1.20;;;;;;;23.89;46.15;99125.59;107618;1260;72311;-41
2023/07/21 09:41:14;;;;;;;2.90;1.30;;;;;;;23.94;44.81;99130.19;107623;1257;66454;-41
2023/07/21 09:43:41;;;;;;;2.80;1.10;;;;;;;23.94;44.76;99131.30;107537;1253;73025;-41
2023/07/21 09:46:08;;;;;;;2.20;1.30;;;;;;;23.96;45.39;99132.02;107557;1257;60536;-41
2023/07/21 09:48:41;;;;;;;3.70;1.30;;;;;;;24.02;45.95;99137.30;107519;1255;60357;-40
2023/07/21 09:51:08;;;;;;;2.70;1.30;;;;;;;24.10;44.98;99140.71;107638;1256;74414;-41
2023/07/21 09:53:41;;;;;;;1.20;1.10;;;;;;;24.15;45.33;99139.96;107604;1256;68141;-41
2023/07/21 09:56:08;;;;;;;1.40;1.10;;;;;;;24.20;45.82;99141.83;107596;1254;73327;-41
2023/07/21 09:58:58;;;;;;;2.70;1.10;;;;;;;24.26;45.66;99145.88;107628;1255;60304;-41
2023/07/21 10:01:26;;;;;;;1.50;1.30;;;;;;;24.35;44.81;99146.48;107678;1255;60394;-41
2023/07/21 10:03:53;;;;;;;2.00;1.20;;;;;;;24.42;45.08;99149.73;107654;1253;74567;-41
2023/07/21 10:06:22;;;;;;;2.10;1.40;;;;;;;24.47;44.57;99149.70;107619;1257;67986;-40
2023/07/21 10:08:50;;;;;;;1.90;1.00;;;;;;;24.50;44.80;99155.59;107425;1254;73131;-40
2023/07/21 10:11:17;;;;;;;4.50;1.10;;;;;;;24.53;44.38;99150.69;107623;1254;60426;-40
2023/07/21 10:13:46;;;;;;;1.70;1.10;;;;;;;24.65;44.10;99148.38;107623;1254;60428;-40
2023/07/21 10:16:13;;;;;;;1.80;1.10;;;;;;;24.85;43.73;99144.09;107654;1256;72698;-41
2023/07/21 10:19:06;;;;;;;2.10;1.10;;;;;;;25.01;42.68;99144.42;107619;1255;68386;-40
2023/07/21 10:21:53;;;;;;;1.30;1.00;;;;;;;25.20;42.84;99147.26;107575;1254;73250;-40
2023/07/21 10:24:24;;;;;;;1.60;1.20;;;;;;;25.28;41.84;99154.11;107516;1258;60534;-41
2023/07/21 10:26:56;;;;;;;4.00;1.00;;;;;;;25.23;41.56;99150.77;107583;1257;60418;-40
2023/07/21 10:29:23;;;;;;;1.10;1.00;;;;;;;25.17;41.13;99153.15;107567;1254;73845;-40
2023/07/21 10:31:54;;;;;;;4.20;1.10;;;;;;;25.17;40.86;99147.47;107455;1254;67905;-40
2023/07/21 10:34:30;;;;;;;1.90;1.10;;;;;;;25.20;42.28;99151.05;107593;1254;72510;-41
2023/07/21 10:37:02;;;;;;;1.80;1.30;;;;;;;25.33;42.35;99147.61;107614;1257;60237;-40
2023/07/21 10:39:33;;;;;;;1.90;1.20;;;;;;;25.45;42.29;99150.37;107638;1254;60175;-41
2023/07/21 10:42:05;;;;;;;2.40;1.20;;;;;;;25.48;41.26;99145.98;107594;1254;74176;-40
2023/07/21 10:44:37;;;;;;;1.50;1.20;;;;;;;25.51;41.32;99140.31;107465;1255;67953;-40
2023/07/21 10:47:11;;;;;;;2.70;1.30;;;;;;;25.67;42.63;99141.96;107587;1257;71423;-40
2023/07/21 10:49:38;;;;;;;2.80;1.30;;;;;;;25.84;41.49;99136.73;107633;1254;60351;-40
2023/07/21 10:52:06;;;;;;;1.50;1.20;;;;;;;25.83;40.77;99136.09;107548;1254;60442;-40
2023/07/21 10:54:32;;;;;;;2.60;1.30;;;;;;;25.67;40.86;99140.95;107499;1252;72724;-40
2023/07/21 10:57:02;;;;;;;1.00;0.80;;;;;;;25.53;40.06;99134.84;107630;1254;68287;-40
2023/07/21 10:59:36;;;;;;;5.10;1.40;;;;;;;25.38;41.24;99134.68;107646;1254;72044;-40
2023/07/21 11:02:04;;;;;;;1.70;1.20;;;;;;;25.32;40.93;99135.44;107646;1255;60437;-40
2023/07/21 11:04:40;;;;;;;2.00;1.20;;;;;;;25.32;41.41;99136.09;107433;1260;60457;-40
2023/07/21 11:07:07;;;;;;;2.30;1.10;;;;;;;25.28;41.13;99138.86;107591;1257;74554;-40
2023/07/21 11:09:34;;;;;;;2.30;1.10;;;;;;;25.21;40.70;99142.27;107614;1256;68022;-40
2023/07/21 11:12:04;;;;;;;1.70;1.10;;;;;;;25.18;40.37;99132.06;107607;1257;73208;-40
2023/07/21 11:14:32;;;;;;;1.40;1.10;;;;;;;25.11;40.18;99130.06;107470;1254;60380;-40
2023/07/21 11:17:01;;;;;;;1.50;1.30;;;;;;;25.09;40.70;99135.33;107595;1254;60418;-40
2023/07/21 11:19:32;;;;;;;1.40;1.00;;;;;;;25.06;40.58;99134.60;107663;1256;73972;-40
2023/07/21 11:21:59;;;;;;;2.00;1.40;;;;;;;25.14;39.94;99124.15;107638;1254;66334;-40
2023/07/21 11:24:29;;;;;;;1.50;1.00;;;;;;;25.25;40.80;99127.84;107594;1254;73355;-40
2023/07/21 11:27:07;;;;;;;2.20;1.10;;;;;;;25.37;39.95;99130.13;107656;1256;60398;-40
2023/07/21 11:29:40;;;;;;;0.90;0.80;;;;;;;25.40;39.02;99132.27;107668;1254;60386;-40
2023/07/21 11:32:20;;;;;;;1.10;1.00;;;;;;;25.22;39.11;99128.83;107651;1254;73822;-41
2023/07/21 11:34:57;;;;;;;1.40;1.10;;;;;;;25.04;39.91;99131.70;107619;1254;67861;-40
2023/07/21 11:37:25;;;;;;;1.90;1.10;;;;;;;24.90;40.11;99134.91;107687;1254;71590;-40
2023/07/21 11:39:55;;;;;;;1.70;1.20;;;;;;;24.78;40.18;99136.22;107628;1254;60415;-40